createdAt,value
2019-06-01T00:00:42.203Z,14.86
2019-06-01T00:01:42.412Z,14.86
2019-06-01T00:02:44.229Z,14.90
2019-06-01T00:03:42.680Z,14.91
2019-06-01T00:04:42.972Z,14.90
2019-06-01T00:05:42.561Z,14.90
2019-06-01T00:06:42.818Z,14.91
2019-06-01T00:07:42.897Z,14.90
2019-06-01T00:08:43.052Z,14.87
2019-06-01T00:09:42.847Z,14.86
2019-06-01T00:10:41.601Z,14.82
2019-06-01T00:11:41.651Z,14.82
2019-06-01T00:12:41.586Z,14.79
2019-06-01T00:13:41.600Z,14.80
2019-06-01T00:14:41.743Z,14.80
2019-06-01T00:15:41.918Z,14.78
2019-06-01T00:16:41.985Z,14.74
2019-06-01T00:17:41.889Z,14.75
2019-06-01T00:18:41.825Z,14.74
2019-06-01T00:19:41.976Z,14.74
2019-06-01T00:20:42.233Z,14.72
2019-06-01T00:21:41.493Z,14.72
2019-06-01T00:22:41.481Z,14.72
2019-06-01T00:23:42.466Z,14.75
2019-06-01T00:24:41.747Z,14.78
2019-06-01T00:25:42.585Z,14.78
2019-06-01T00:26:41.731Z,14.78
2019-06-01T00:27:42.430Z,14.75
2019-06-01T00:28:41.706Z,14.74
2019-06-01T00:29:42.523Z,14.78
2019-06-01T00:30:41.661Z,14.75
2019-06-01T00:31:41.388Z,14.74
2019-06-01T00:32:41.368Z,14.74
2019-06-01T00:33:41.364Z,14.72
2019-06-01T00:34:41.357Z,14.72
2019-06-01T00:35:41.443Z,14.72
2019-06-01T00:36:41.525Z,14.71
2019-06-01T00:37:41.402Z,14.69
2019-06-01T00:38:41.693Z,14.67
2019-06-01T00:39:41.640Z,14.66
2019-06-01T00:40:41.717Z,14.66
2019-06-01T00:41:41.905Z,14.63
2019-06-01T00:42:42.010Z,14.61
2019-06-01T00:43:42.091Z,14.60
2019-06-01T00:44:42.114Z,14.57
2019-06-01T00:45:42.278Z,14.54
2019-06-01T00:46:42.449Z,14.54
2019-06-01T00:47:42.578Z,14.53
2019-06-01T00:48:41.225Z,14.53
2019-06-01T00:49:41.195Z,14.54
2019-06-01T00:50:41.201Z,14.54
2019-06-01T00:51:41.181Z,14.54
2019-06-01T00:52:41.152Z,14.56
2019-06-01T00:53:41.159Z,14.57
2019-06-01T00:54:41.142Z,14.57
2019-06-01T00:55:41.137Z,14.59
2019-06-01T00:56:41.119Z,14.60
2019-06-01T00:57:41.160Z,14.60
2019-06-01T00:58:41.091Z,14.61
2019-06-01T00:59:41.080Z,14.61
2019-06-01T01:00:45.199Z,14.64
2019-06-01T01:01:41.077Z,14.64
2019-06-01T01:02:41.051Z,14.66
2019-06-01T01:03:41.037Z,14.67
2019-06-01T01:04:41.028Z,14.66
2019-06-01T01:05:41.038Z,14.64
2019-06-01T01:06:41.007Z,14.64
2019-06-01T01:07:41.007Z,14.63
2019-06-01T01:08:41.008Z,14.61
2019-06-01T01:09:40.975Z,14.60
2019-06-01T01:10:40.964Z,14.56
2019-06-01T01:11:40.963Z,14.54
2019-06-01T01:12:40.963Z,14.52
2019-06-01T01:13:40.924Z,14.48
2019-06-01T01:14:40.943Z,14.46
2019-06-01T01:15:40.903Z,14.42
2019-06-01T01:16:40.944Z,14.41
2019-06-01T01:17:40.924Z,14.38
2019-06-01T01:18:40.941Z,14.38
2019-06-01T01:19:40.871Z,14.39
2019-06-01T01:20:40.860Z,14.39
2019-06-01T01:21:40.840Z,14.39
2019-06-01T01:22:40.854Z,14.39
2019-06-01T01:23:40.843Z,14.38
2019-06-01T01:24:40.821Z,14.38
2019-06-01T01:25:40.805Z,14.38
2019-06-01T01:26:40.788Z,14.38
2019-06-01T01:27:40.786Z,14.39
2019-06-01T01:28:40.789Z,14.38
2019-06-01T01:29:40.766Z,14.38
2019-06-01T01:30:40.757Z,14.36
2019-06-01T01:31:40.738Z,14.35
2019-06-01T01:32:40.737Z,14.31
2019-06-01T01:33:40.717Z,14.34
2019-06-01T01:34:40.746Z,14.31
2019-06-01T01:35:40.707Z,14.31
2019-06-01T01:36:40.708Z,14.29
2019-06-01T01:37:40.729Z,14.30
2019-06-01T01:38:40.665Z,14.29
2019-06-01T01:39:40.652Z,14.26
2019-06-01T01:40:40.647Z,14.23
2019-06-01T01:41:40.643Z,14.21
2019-06-01T01:42:40.639Z,14.17
2019-06-01T01:43:40.602Z,14.13
2019-06-01T01:44:40.595Z,14.12
2019-06-01T01:45:40.592Z,14.09
2019-06-01T01:46:40.591Z,14.05
2019-06-01T01:47:40.584Z,14.04
2019-06-01T01:48:40.551Z,14.04
2019-06-01T01:49:40.580Z,14.02
2019-06-01T01:50:40.540Z,14.01
2019-06-01T01:51:40.521Z,13.99
2019-06-01T01:52:40.510Z,14.01
2019-06-01T01:53:40.515Z,13.99
2019-06-01T01:54:40.509Z,14.01
2019-06-01T01:55:40.499Z,13.98
2019-06-01T01:56:40.470Z,13.98
2019-06-01T01:57:40.459Z,13.98
2019-06-01T01:58:40.461Z,13.93
2019-06-01T01:59:40.436Z,13.91
2019-06-01T02:00:40.437Z,13.87
2019-06-01T02:01:40.406Z,13.87
2019-06-01T02:02:40.416Z,13.84
2019-06-01T02:03:40.395Z,13.83
2019-06-01T02:04:40.388Z,13.81
2019-06-01T02:05:40.374Z,13.80
2019-06-01T02:06:40.364Z,13.81
2019-06-01T02:07:40.354Z,13.81
2019-06-01T02:08:40.353Z,13.81
2019-06-01T02:09:40.332Z,13.81
2019-06-01T02:10:40.364Z,13.83
2019-06-01T02:11:40.323Z,13.79
2019-06-01T02:12:40.311Z,13.76
2019-06-01T02:13:40.300Z,13.79
2019-06-01T02:14:40.297Z,13.76
2019-06-01T02:15:40.286Z,13.80
2019-06-01T02:16:40.302Z,13.81
2019-06-01T02:17:40.274Z,13.81
2019-06-01T02:18:40.258Z,13.81
2019-06-01T02:19:40.219Z,13.81
2019-06-01T02:20:40.221Z,13.81
2019-06-01T02:21:40.229Z,13.83
2019-06-01T02:22:40.197Z,13.81
2019-06-01T02:23:40.209Z,13.81
2019-06-01T02:24:40.170Z,13.83
2019-06-01T02:25:40.157Z,13.81
2019-06-01T02:26:40.168Z,13.83
2019-06-01T02:27:40.138Z,13.81
2019-06-01T02:28:40.126Z,13.81
2019-06-01T02:29:40.126Z,13.81
2019-06-01T02:30:40.113Z,13.81
2019-06-01T02:31:42.728Z,13.79
2019-06-01T02:32:40.086Z,13.76
2019-06-01T02:33:40.085Z,13.75
2019-06-01T02:34:40.073Z,13.75
2019-06-01T02:35:40.055Z,13.73
2019-06-01T02:36:40.049Z,13.73
2019-06-01T02:37:40.033Z,13.72
2019-06-01T02:38:40.045Z,13.69
2019-06-01T02:39:40.018Z,13.66
2019-06-01T02:40:40.005Z,13.68
2019-06-01T02:41:39.995Z,13.65
2019-06-01T02:42:39.991Z,13.63
2019-06-01T02:43:39.982Z,13.63
2019-06-01T02:44:39.970Z,13.65
2019-06-01T02:45:39.954Z,13.62
2019-06-01T02:46:39.943Z,13.62
2019-06-01T02:47:39.944Z,13.62
2019-06-01T02:48:39.922Z,13.63
2019-06-01T02:49:39.928Z,13.65
2019-06-01T02:50:39.899Z,13.68
2019-06-01T02:51:39.887Z,13.66
2019-06-01T02:52:39.903Z,13.66
2019-06-01T02:53:39.870Z,13.68
2019-06-01T02:54:39.852Z,13.69
2019-06-01T02:55:39.847Z,13.69
2019-06-01T02:56:39.837Z,13.66
2019-06-01T02:57:39.833Z,13.68
2019-06-01T02:58:39.823Z,13.68
2019-06-01T02:59:39.818Z,13.68
2019-06-01T03:00:39.796Z,13.68
2019-06-01T03:01:55.967Z,13.68
2019-06-01T03:02:40.796Z,13.66
2019-06-01T03:03:39.754Z,13.63
2019-06-01T03:04:39.744Z,13.63
2019-06-01T03:05:39.746Z,13.62
2019-06-01T03:06:39.766Z,13.57
2019-06-01T03:07:39.714Z,13.54
2019-06-01T03:08:39.721Z,13.51
2019-06-01T03:09:39.693Z,13.48
2019-06-01T03:10:39.681Z,13.48
2019-06-01T03:11:39.691Z,13.46
2019-06-01T03:12:39.669Z,13.46
2019-06-01T03:13:39.691Z,13.44
2019-06-01T03:14:39.641Z,13.43
2019-06-01T03:15:39.632Z,13.41
2019-06-01T03:16:40.371Z,13.41
2019-06-01T03:17:39.609Z,13.43
2019-06-01T03:18:39.631Z,13.43
2019-06-01T03:19:39.588Z,13.46
2019-06-01T03:20:39.568Z,13.44
2019-06-01T03:21:39.579Z,13.44
2019-06-01T03:23:48.631Z,13.46
2019-06-01T03:24:48.451Z,13.44
2019-06-01T03:25:48.441Z,13.43
2019-06-01T03:26:48.442Z,13.41
2019-06-01T03:27:48.424Z,13.39
2019-06-01T03:28:48.409Z,13.39
2019-06-01T03:29:48.449Z,13.41
2019-06-01T03:30:48.390Z,13.36
2019-06-01T03:31:48.427Z,13.35
2019-06-01T03:32:48.371Z,13.35
2019-06-01T03:33:48.358Z,13.32
2019-06-01T03:34:48.351Z,13.31
2019-06-01T03:35:48.337Z,13.29
2019-06-01T03:36:48.326Z,13.31
2019-06-01T03:37:48.335Z,13.29
2019-06-01T03:38:48.323Z,13.29
2019-06-01T03:39:48.300Z,13.29
2019-06-01T03:40:48.299Z,13.32
2019-06-01T03:41:48.270Z,13.32
2019-06-01T03:42:48.293Z,13.36
2019-06-01T03:43:48.255Z,13.38
2019-06-01T03:44:48.286Z,13.41
2019-06-01T03:45:48.267Z,13.41
2019-06-01T03:46:48.224Z,13.41
2019-06-01T03:47:48.242Z,13.39
2019-06-01T03:48:48.194Z,13.38
2019-06-01T03:49:48.183Z,13.43
2019-06-01T03:50:48.174Z,13.41
2019-06-01T03:51:48.163Z,13.41
2019-06-01T03:52:48.170Z,13.43
2019-06-01T03:53:48.142Z,13.43
2019-06-01T03:54:48.682Z,13.44
2019-06-01T03:55:48.123Z,13.44
2019-06-01T03:56:48.119Z,13.46
2019-06-01T03:57:48.098Z,13.48
2019-06-01T03:58:48.099Z,13.50
2019-06-01T03:59:48.090Z,13.50
2019-06-01T04:00:48.085Z,13.51
2019-06-01T04:01:48.073Z,13.51
2019-06-01T04:02:48.045Z,13.54
2019-06-01T04:03:48.039Z,13.55
2019-06-01T04:04:48.019Z,13.59
2019-06-01T04:05:48.029Z,13.59
2019-06-01T04:06:48.024Z,13.62
2019-06-01T04:07:47.994Z,13.62
2019-06-01T04:08:47.977Z,13.63
2019-06-01T04:09:48.009Z,13.62
2019-06-01T04:10:47.990Z,13.62
2019-06-01T04:11:47.954Z,13.59
2019-06-01T04:12:47.972Z,13.57
2019-06-01T04:13:47.943Z,13.59
2019-06-01T04:14:47.911Z,13.59
2019-06-01T04:15:47.956Z,13.59
2019-06-01T04:16:48.655Z,13.59
2019-06-01T04:17:47.892Z,13.59
2019-06-01T04:18:47.872Z,13.61
2019-06-01T04:19:47.862Z,13.63
2019-06-01T04:20:47.852Z,13.66
2019-06-01T04:21:47.861Z,13.68
2019-06-01T04:22:47.829Z,13.68
2019-06-01T04:23:47.827Z,13.71
2019-06-01T04:24:47.810Z,13.72
2019-06-01T04:25:47.798Z,13.73
2019-06-01T04:26:47.800Z,13.75
2019-06-01T04:27:47.769Z,13.79
2019-06-01T04:28:47.768Z,13.83
2019-06-01T04:29:47.779Z,13.86
2019-06-01T04:30:47.754Z,13.93
2019-06-01T04:31:47.742Z,14.01
2019-06-01T04:32:50.228Z,14.09
2019-06-01T04:33:47.718Z,14.21
2019-06-01T04:34:47.716Z,14.35
2019-06-01T04:35:47.687Z,14.45
2019-06-01T04:36:47.693Z,14.57
2019-06-01T04:37:47.672Z,14.66
2019-06-01T04:38:47.673Z,14.67
2019-06-01T04:39:47.645Z,14.72
2019-06-01T04:40:47.655Z,14.80
2019-06-01T04:41:47.623Z,14.86
2019-06-01T04:42:47.645Z,14.93
2019-06-01T04:43:47.620Z,14.98
2019-06-01T04:44:47.593Z,15.00
2019-06-01T04:45:47.590Z,14.94
2019-06-01T04:46:47.571Z,14.86
2019-06-01T04:47:47.571Z,14.80
2019-06-01T04:48:47.562Z,14.93
2019-06-01T04:49:47.542Z,15.12
2019-06-01T04:50:47.529Z,15.22
2019-06-01T04:51:47.519Z,15.20
2019-06-01T04:52:47.614Z,15.12
2019-06-01T04:53:47.526Z,15.04
2019-06-01T04:54:47.488Z,14.98
2019-06-01T04:55:47.480Z,14.95
2019-06-01T04:56:47.469Z,14.95
2019-06-01T04:57:47.459Z,14.94
2019-06-01T04:58:47.462Z,14.95
2019-06-01T04:59:47.447Z,14.93
2019-06-01T05:00:47.425Z,14.91
2019-06-01T05:01:47.417Z,14.94
2019-06-01T05:02:47.440Z,14.94
2019-06-01T05:03:47.395Z,14.95
2019-06-01T05:04:47.445Z,14.95
2019-06-01T05:05:47.378Z,14.97
2019-06-01T05:06:47.364Z,14.98
2019-06-01T05:07:47.344Z,15.05
2019-06-01T05:08:47.362Z,15.09
2019-06-01T05:09:47.343Z,15.11
2019-06-01T05:10:47.323Z,15.16
2019-06-01T05:11:47.355Z,15.19
2019-06-01T05:12:47.294Z,15.22
2019-06-01T05:13:47.293Z,15.25
2019-06-01T05:14:47.272Z,15.28
2019-06-01T05:15:47.266Z,15.33
2019-06-01T05:16:47.250Z,15.38
2019-06-01T05:17:47.241Z,15.48
2019-06-01T05:18:47.250Z,15.60
2019-06-01T05:19:47.244Z,15.74
2019-06-01T05:20:47.211Z,15.86
2019-06-01T05:21:47.199Z,15.98
2019-06-01T05:22:47.189Z,16.11
2019-06-01T05:23:47.177Z,16.41
2019-06-01T05:24:47.182Z,17.00
2019-06-01T05:25:47.167Z,17.65
2019-06-01T05:26:47.148Z,18.02
2019-06-01T05:27:47.137Z,18.25
2019-06-01T05:28:47.134Z,18.64
2019-06-01T05:29:47.117Z,18.89
2019-06-01T05:30:47.097Z,18.94
2019-06-01T05:31:47.086Z,19.17
2019-06-01T05:32:47.124Z,19.43
2019-06-01T05:33:47.075Z,19.35
2019-06-01T05:34:47.067Z,19.25
2019-06-01T05:35:47.046Z,19.13
2019-06-01T05:36:47.035Z,19.16
2019-06-01T05:37:47.034Z,19.07
2019-06-01T05:38:47.024Z,18.82
2019-06-01T05:39:47.036Z,18.59
2019-06-01T05:40:46.996Z,18.50
2019-06-01T05:42:55.953Z,18.72
2019-06-01T05:43:55.893Z,19.09
2019-06-01T05:44:55.888Z,19.25
2019-06-01T05:45:55.869Z,19.38
2019-06-01T05:46:55.856Z,19.76
2019-06-01T05:47:55.880Z,20.40
2019-06-01T05:48:55.835Z,20.69
2019-06-01T05:49:55.832Z,21.73
2019-06-01T05:50:55.821Z,22.64
2019-06-01T05:51:55.807Z,23.72
2019-06-01T05:52:55.785Z,24.52
2019-06-01T05:53:55.783Z,24.84
2019-06-01T05:54:55.773Z,24.55
2019-06-01T05:55:55.762Z,24.04
2019-06-01T05:56:55.743Z,23.19
2019-06-01T05:57:55.739Z,22.54
2019-06-01T05:58:55.722Z,21.94
2019-06-01T05:59:55.742Z,21.30
2019-06-01T06:00:55.702Z,21.11
2019-06-01T06:01:55.692Z,21.16
2019-06-01T06:02:55.692Z,21.71
2019-06-01T06:03:55.674Z,21.86
2019-06-01T06:04:55.693Z,21.90
2019-06-01T06:05:55.655Z,21.68
2019-06-01T06:06:55.640Z,21.34
2019-06-01T06:07:55.631Z,20.94
2019-06-01T06:08:55.620Z,20.61
2019-06-01T06:09:55.623Z,20.31
2019-06-01T06:10:55.599Z,20.35
2019-06-01T06:11:55.595Z,20.23
2019-06-01T06:12:55.584Z,20.02
2019-06-01T06:13:55.568Z,19.82
2019-06-01T06:14:55.634Z,19.53
2019-06-01T06:15:55.558Z,19.32
2019-06-01T06:16:55.538Z,19.24
2019-06-01T06:17:55.518Z,19.25
2019-06-01T06:18:55.516Z,19.16
2019-06-01T06:19:55.506Z,19.23
2019-06-01T06:20:55.527Z,19.28
2019-06-01T06:21:55.498Z,19.43
2019-06-01T06:22:55.797Z,19.60
2019-06-01T06:23:55.468Z,19.72
2019-06-01T06:24:55.445Z,19.80
2019-06-01T06:25:55.435Z,19.82
2019-06-01T06:26:55.440Z,19.87
2019-06-01T06:27:55.419Z,19.80
2019-06-01T06:28:55.416Z,19.64
2019-06-01T06:29:55.395Z,19.47
2019-06-01T06:30:55.389Z,19.57
2019-06-01T06:31:55.390Z,19.68
2019-06-01T06:32:55.379Z,19.98
2019-06-01T06:33:57.021Z,20.30
2019-06-01T06:34:55.344Z,20.41
2019-06-01T06:35:55.346Z,20.73
2019-06-01T06:36:55.323Z,20.82
2019-06-01T06:37:55.303Z,20.96
2019-06-01T06:38:55.303Z,21.12
2019-06-01T06:39:55.295Z,21.46
2019-06-01T06:40:55.278Z,21.86
2019-06-01T06:41:55.401Z,22.61
2019-06-01T06:42:55.278Z,23.47
2019-06-01T06:43:55.241Z,23.94
2019-06-01T06:44:55.233Z,24.39
2019-06-01T06:45:55.220Z,24.97
2019-06-01T06:46:55.231Z,25.14
2019-06-01T06:47:55.200Z,25.63
2019-06-01T06:48:55.199Z,25.48
2019-06-01T06:49:55.184Z,25.38
2019-06-01T06:50:55.180Z,25.45
2019-06-01T06:51:55.184Z,25.48
2019-06-01T06:52:55.153Z,25.42
2019-06-01T06:53:55.138Z,25.39
2019-06-01T06:54:55.129Z,25.96
2019-06-01T06:55:55.128Z,27.16
2019-06-01T06:56:55.106Z,28.23
2019-06-01T06:57:55.103Z,28.70
2019-06-01T06:58:55.099Z,28.89
2019-06-01T06:59:55.067Z,28.70
2019-06-01T07:00:55.063Z,28.27
2019-06-01T07:01:55.047Z,27.43
2019-06-01T07:02:55.067Z,25.81
2019-06-01T07:03:55.054Z,25.49
2019-06-01T07:04:55.025Z,24.79
2019-06-01T07:05:55.018Z,24.75
2019-06-01T07:06:54.996Z,25.48
2019-06-01T07:07:55.000Z,25.42
2019-06-01T07:08:54.997Z,24.45
2019-06-01T07:09:54.994Z,25.17
2019-06-01T07:10:54.965Z,26.94
2019-06-01T07:11:54.966Z,28.25
2019-06-01T07:12:54.936Z,29.23
2019-06-01T07:13:54.935Z,29.97
2019-06-01T07:14:54.936Z,30.48
2019-06-01T07:15:54.905Z,30.94
2019-06-01T07:16:54.894Z,31.45
2019-06-01T07:17:54.903Z,31.47
2019-06-01T07:18:54.874Z,31.65
2019-06-01T07:19:54.874Z,31.71
2019-06-01T07:20:54.864Z,31.98
2019-06-01T07:21:54.844Z,31.62
2019-06-01T07:22:54.833Z,31.85
2019-06-01T07:23:54.833Z,31.97
2019-06-01T07:24:54.843Z,32.40
2019-06-01T07:25:54.803Z,32.54
2019-06-01T07:26:54.807Z,32.71
2019-06-01T07:27:54.829Z,32.96
2019-06-01T07:28:55.223Z,32.99
2019-06-01T07:29:54.778Z,32.95
2019-06-01T07:30:54.753Z,32.96
2019-06-01T07:31:54.744Z,33.05
2019-06-01T07:32:54.752Z,32.98
2019-06-01T07:33:54.723Z,33.02
2019-06-01T07:34:54.711Z,33.06
2019-06-01T07:35:56.689Z,33.09
2019-06-01T07:36:54.706Z,32.90
2019-06-01T07:37:54.689Z,32.93
2019-06-01T07:38:54.671Z,33.00
2019-06-01T07:39:54.690Z,32.83
2019-06-01T07:40:54.660Z,32.78
2019-06-01T07:41:54.676Z,31.91
2019-06-01T07:42:54.630Z,32.13
2019-06-01T07:43:54.620Z,32.66
2019-06-01T07:44:54.631Z,32.69
2019-06-01T07:45:54.620Z,32.12
2019-06-01T07:46:54.609Z,32.54
2019-06-01T07:47:54.580Z,33.07
2019-06-01T07:48:54.630Z,33.33
2019-06-01T07:49:54.559Z,32.85
2019-06-01T07:50:54.571Z,32.65
2019-06-01T07:51:54.585Z,31.78
2019-06-01T07:52:54.529Z,32.39
2019-06-01T07:53:54.538Z,32.17
2019-06-01T07:54:54.528Z,32.39
2019-06-01T07:55:54.538Z,32.59
2019-06-01T07:56:54.507Z,32.27
2019-06-01T07:57:54.506Z,31.97
2019-06-01T07:58:54.478Z,32.25
2019-06-01T07:59:54.472Z,32.03
2019-06-01T08:00:54.465Z,31.13
2019-06-01T08:01:54.456Z,31.09
2019-06-01T08:02:54.449Z,30.81
2019-06-01T08:03:54.427Z,31.16
2019-06-01T08:04:54.920Z,31.22
2019-06-01T08:05:54.407Z,31.49
2019-06-01T08:06:54.418Z,31.16
2019-06-01T08:07:54.397Z,31.57
2019-06-01T08:08:54.381Z,32.09
2019-06-01T08:09:54.367Z,31.04
2019-06-01T08:10:54.366Z,31.53
2019-06-01T08:11:54.366Z,31.94
2019-06-01T08:12:54.336Z,31.82
2019-06-01T08:13:54.326Z,31.53
2019-06-01T08:14:54.316Z,30.56
2019-06-01T08:15:54.316Z,31.34
2019-06-01T08:16:54.323Z,31.78
2019-06-01T08:17:54.293Z,31.72
2019-06-01T08:18:54.290Z,31.57
2019-06-01T08:19:54.276Z,31.62
2019-06-01T08:20:54.275Z,31.04
2019-06-01T08:21:54.279Z,30.94
2019-06-01T08:22:54.244Z,31.05
2019-06-01T08:23:54.241Z,30.91
2019-06-01T08:24:54.235Z,30.40
2019-06-01T08:25:54.221Z,30.29
2019-06-01T08:26:54.225Z,29.05
2019-06-01T08:27:54.194Z,30.11
2019-06-01T08:28:54.174Z,30.60
2019-06-01T08:29:54.175Z,30.78
2019-06-01T08:30:54.166Z,30.48
2019-06-01T08:31:55.923Z,30.53
2019-06-01T08:32:54.153Z,31.28
2019-06-01T08:33:54.153Z,32.03
2019-06-01T08:35:07.802Z,32.73
2019-06-01T08:35:55.124Z,31.47
2019-06-01T08:36:54.106Z,31.16
2019-06-01T08:37:54.102Z,30.96
2019-06-01T08:38:54.083Z,29.39
2019-06-01T08:39:54.071Z,30.70
2019-06-01T08:40:54.080Z,31.31
2019-06-01T08:41:54.061Z,31.59
2019-06-01T08:42:54.049Z,32.24
2019-06-01T08:43:54.034Z,31.28
2019-06-01T08:44:54.031Z,30.81
2019-06-01T08:45:54.020Z,31.37
2019-06-01T08:46:54.021Z,31.07
2019-06-01T08:47:54.021Z,31.07
2019-06-01T08:48:53.991Z,30.94
2019-06-01T08:49:53.980Z,31.35
2019-06-01T08:50:53.981Z,31.40
2019-06-01T08:51:53.951Z,31.37
2019-06-01T08:52:53.941Z,31.42
2019-06-01T08:53:53.942Z,31.05
2019-06-01T08:54:53.919Z,30.98
2019-06-01T08:55:53.939Z,31.20
2019-06-01T08:56:53.900Z,30.32
2019-06-01T08:57:53.900Z,30.40
2019-06-01T08:58:53.879Z,30.61
2019-06-01T08:59:53.879Z,31.07
2019-06-01T09:00:53.876Z,31.47
2019-06-01T09:01:53.859Z,30.18
2019-06-01T09:02:53.842Z,29.39
2019-06-01T09:03:53.838Z,29.86
2019-06-01T09:04:53.829Z,30.56
2019-06-01T09:05:53.826Z,30.75
2019-06-01T09:06:53.810Z,31.16
2019-06-01T09:07:53.800Z,30.98
2019-06-01T09:08:53.786Z,31.00
2019-06-01T09:09:53.777Z,30.66
2019-06-01T09:10:53.779Z,30.49
2019-06-01T09:11:53.758Z,30.32
2019-06-01T09:12:53.757Z,30.46
2019-06-01T09:13:53.737Z,30.38
2019-06-01T09:14:53.727Z,29.91
2019-06-01T09:15:53.716Z,29.99
2019-06-01T09:16:53.725Z,30.30
2019-06-01T09:17:53.697Z,30.64
2019-06-01T09:18:53.685Z,30.78
2019-06-01T09:19:53.676Z,29.76
2019-06-01T09:20:53.665Z,29.18
2019-06-01T09:21:53.676Z,29.41
2019-06-01T09:22:53.645Z,29.58
2019-06-01T09:23:53.640Z,29.94
2019-06-01T09:24:53.717Z,28.51
2019-06-01T09:25:53.626Z,29.27
2019-06-01T09:26:53.613Z,29.33
2019-06-01T09:27:53.603Z,29.41
2019-06-01T09:28:53.585Z,29.23
2019-06-01T09:29:53.573Z,28.85
2019-06-01T09:30:53.584Z,28.38
2019-06-01T09:31:53.554Z,27.96
2019-06-01T09:32:53.555Z,27.72
2019-06-01T09:33:53.524Z,27.25
2019-06-01T09:34:53.513Z,26.79
2019-06-01T09:35:56.232Z,26.57
2019-06-01T09:36:55.509Z,26.50
2019-06-01T09:37:53.493Z,26.35
2019-06-01T09:38:53.493Z,25.98
2019-06-01T09:39:53.475Z,25.82
2019-06-01T09:40:53.461Z,25.60
2019-06-01T09:41:53.442Z,25.17
2019-06-01T09:42:53.440Z,24.92
2019-06-01T09:43:53.440Z,25.01
2019-06-01T09:44:53.453Z,25.09
2019-06-01T09:45:53.728Z,25.27
2019-06-01T09:46:53.392Z,25.38
2019-06-01T09:47:53.391Z,25.38
2019-06-01T09:48:53.380Z,25.08
2019-06-01T09:49:53.361Z,24.89
2019-06-01T09:50:53.359Z,24.87
2019-06-01T09:51:53.370Z,24.90
2019-06-01T09:52:53.333Z,24.89
2019-06-01T09:53:53.321Z,24.97
2019-06-01T09:54:53.309Z,24.83
2019-06-01T09:55:53.306Z,24.83
2019-06-01T09:56:53.309Z,24.87
2019-06-01T09:57:53.281Z,24.82
2019-06-01T09:58:53.271Z,24.70
2019-06-01T09:59:53.286Z,24.49
2019-06-01T10:00:53.247Z,24.33
2019-06-01T10:01:53.238Z,24.14
2019-06-01T10:02:53.228Z,24.15
2019-06-01T10:03:53.228Z,24.26
2019-06-01T10:04:53.226Z,24.36
2019-06-01T10:06:01.972Z,24.42
2019-06-01T10:06:54.181Z,24.41
2019-06-01T10:07:53.197Z,24.31
2019-06-01T10:08:53.166Z,24.19
2019-06-01T10:09:53.158Z,24.19
2019-06-01T10:10:53.165Z,24.21
2019-06-01T10:11:53.126Z,24.08
2019-06-01T10:12:53.136Z,23.92
2019-06-01T10:13:53.106Z,23.84
2019-06-01T10:14:53.125Z,23.75
2019-06-01T10:15:53.085Z,23.78
2019-06-01T10:16:53.083Z,23.90
2019-06-01T10:17:53.076Z,24.04
2019-06-01T10:18:53.054Z,24.12
2019-06-01T10:19:53.065Z,23.96
2019-06-01T10:20:53.045Z,24.00
2019-06-01T10:21:53.032Z,24.04
2019-06-01T10:22:53.015Z,24.02
2019-06-01T10:23:53.013Z,24.02
2019-06-01T10:24:52.993Z,24.09
2019-06-01T10:25:53.010Z,24.09
2019-06-01T10:26:53.112Z,24.06
2019-06-01T10:27:52.980Z,24.06
2019-06-01T10:28:52.962Z,24.09
2019-06-01T10:29:52.942Z,24.14
2019-06-01T10:30:52.927Z,24.11
2019-06-01T10:31:52.919Z,24.12
2019-06-01T10:32:52.911Z,24.18
2019-06-01T10:33:52.911Z,24.08
2019-06-01T10:34:52.891Z,23.93
2019-06-01T10:35:52.891Z,23.79
2019-06-01T10:36:52.868Z,23.77
2019-06-01T10:37:52.850Z,23.90
2019-06-01T10:38:52.840Z,23.99
2019-06-01T10:39:52.838Z,24.11
2019-06-01T10:40:52.838Z,24.08
2019-06-01T10:41:52.819Z,24.09
2019-06-01T10:42:52.809Z,24.21
2019-06-01T10:43:52.807Z,24.26
2019-06-01T10:44:52.810Z,24.27
2019-06-01T10:45:52.768Z,24.19
2019-06-01T10:46:52.774Z,24.18
2019-06-01T10:47:52.757Z,24.15
2019-06-01T10:48:52.742Z,24.19
2019-06-01T10:49:52.726Z,24.29
2019-06-01T10:50:52.717Z,24.37
2019-06-01T10:51:52.717Z,24.36
2019-06-01T10:52:52.709Z,24.39
2019-06-01T10:53:52.709Z,24.34
2019-06-01T10:54:52.676Z,24.18
2019-06-01T10:55:52.665Z,24.15
2019-06-01T10:56:52.822Z,24.21
2019-06-01T10:57:52.645Z,24.16
2019-06-01T10:58:59.954Z,24.08
2019-06-01T10:59:53.614Z,24.06
2019-06-01T11:00:52.614Z,24.14
2019-06-01T11:01:52.622Z,24.19
2019-06-01T11:02:52.598Z,24.24
2019-06-01T11:03:52.575Z,24.24
2019-06-01T11:04:52.577Z,24.26
2019-06-01T11:05:52.563Z,24.26
2019-06-01T11:06:52.561Z,24.26
2019-06-01T11:07:52.552Z,24.29
2019-06-01T11:08:52.523Z,24.33
2019-06-01T11:09:52.522Z,24.15
2019-06-01T11:10:52.558Z,24.16
2019-06-01T11:11:52.501Z,24.21
2019-06-01T11:12:52.490Z,24.16
2019-06-01T11:13:52.471Z,24.18
2019-06-01T11:14:52.468Z,24.23
2019-06-01T11:15:52.469Z,24.30
2019-06-01T11:16:56.247Z,24.30
2019-06-01T11:17:52.430Z,24.36
2019-06-01T11:18:52.444Z,24.42
2019-06-01T11:19:52.410Z,24.48
2019-06-01T11:20:52.399Z,24.55
2019-06-01T11:21:52.442Z,24.64
2019-06-01T11:22:52.379Z,24.66
2019-06-01T11:23:52.378Z,24.75
2019-06-01T11:24:52.359Z,24.80
2019-06-01T11:25:52.349Z,24.84
2019-06-01T11:26:52.338Z,24.89
2019-06-01T11:27:52.332Z,24.93
2019-06-01T11:28:52.329Z,24.94
2019-06-01T11:29:52.308Z,24.92
2019-06-01T11:30:52.317Z,24.93
2019-06-01T11:31:52.287Z,24.92
2019-06-01T11:32:52.267Z,24.92
2019-06-01T11:33:52.285Z,24.93
2019-06-01T11:34:52.256Z,24.86
2019-06-01T11:35:52.249Z,24.71
2019-06-01T11:37:04.382Z,24.52
2019-06-01T11:37:53.225Z,24.31
2019-06-01T11:38:52.229Z,24.18
2019-06-01T11:39:52.197Z,24.16
2019-06-01T11:40:52.223Z,24.16
2019-06-01T11:41:52.175Z,24.27
2019-06-01T11:42:52.166Z,24.37
2019-06-01T11:43:52.164Z,24.49
2019-06-01T11:44:52.144Z,24.44
2019-06-01T11:45:52.154Z,24.46
2019-06-01T11:46:52.157Z,24.53
2019-06-01T11:47:52.114Z,24.59
2019-06-01T11:48:52.115Z,24.64
2019-06-01T11:49:52.093Z,24.66
2019-06-01T11:50:52.093Z,24.64
2019-06-01T11:51:52.105Z,24.59
2019-06-01T11:52:52.065Z,24.63
2019-06-01T11:53:52.053Z,24.64
2019-06-01T11:54:52.051Z,24.66
2019-06-01T11:55:52.031Z,24.71
2019-06-01T11:56:52.021Z,24.80
2019-06-01T11:57:52.009Z,24.86
2019-06-01T11:58:52.001Z,24.87
2019-06-01T11:59:52.004Z,24.92
2019-06-01T12:00:51.981Z,24.94
2019-06-01T12:01:52.071Z,24.86
2019-06-01T12:02:51.949Z,24.82
2019-06-01T12:03:51.958Z,24.82
2019-06-01T12:04:51.930Z,24.61
2019-06-01T12:05:51.929Z,24.59
2019-06-01T12:06:51.972Z,24.67
2019-06-01T12:07:51.898Z,24.79
2019-06-01T12:08:51.897Z,24.79
2019-06-01T12:09:51.878Z,24.67
2019-06-01T12:10:51.868Z,24.66
2019-06-01T12:11:51.991Z,24.64
2019-06-01T12:12:51.848Z,24.74
2019-06-01T12:13:51.847Z,24.86
2019-06-01T12:14:51.828Z,24.93
2019-06-01T12:15:51.818Z,25.02
2019-06-01T12:16:51.817Z,25.12
2019-06-01T12:17:51.799Z,25.22
2019-06-01T12:18:51.786Z,25.31
2019-06-01T12:19:51.776Z,25.26
2019-06-01T12:20:51.764Z,25.23
2019-06-01T12:21:51.847Z,25.30
2019-06-01T12:22:51.791Z,25.34
2019-06-01T12:23:51.748Z,25.31
2019-06-01T12:24:51.720Z,25.31
2019-06-01T12:25:51.714Z,25.27
2019-06-01T12:26:51.702Z,25.23
2019-06-01T12:27:51.694Z,25.17
2019-06-01T12:28:51.703Z,25.08
2019-06-01T12:29:52.650Z,25.04
2019-06-01T12:30:51.661Z,25.08
2019-06-01T12:31:51.669Z,25.11
2019-06-01T12:32:51.638Z,25.16
2019-06-01T12:33:51.642Z,25.14
2019-06-01T12:34:51.642Z,25.09
2019-06-01T12:35:51.602Z,25.01
2019-06-01T12:36:51.592Z,24.63
2019-06-01T12:38:05.637Z,24.18
2019-06-01T12:38:52.583Z,24.02
2019-06-01T12:39:54.219Z,24.00
2019-06-01T12:40:51.601Z,24.09
2019-06-01T12:41:51.828Z,24.23
2019-06-01T12:42:52.012Z,24.21
2019-06-01T12:43:51.884Z,24.18
2019-06-01T12:44:52.057Z,24.24
2019-06-01T12:46:05.418Z,24.29
2019-06-01T12:46:53.032Z,24.41
2019-06-01T12:47:57.585Z,24.49
2019-06-01T12:48:52.639Z,24.63
2019-06-01T12:49:52.704Z,24.75
2019-06-01T12:50:52.517Z,24.84
2019-06-01T12:51:52.916Z,24.94
2019-06-01T12:52:52.650Z,25.02
2019-06-01T12:53:52.728Z,25.05
2019-06-01T12:54:51.408Z,25.12